Time,TemperatureF,DewpointF,PressureIn,WindDirection,WindDirectionDegrees,WindSpeedMPH,WindSpeedGustMPH,Humidity,HourlyPrecipIn,Conditions,Clouds,dailyrainin,SolarRadiationWatts/m^2,SoftwareType,DateUTC
2013-05-05 00:01:00,39.2,34.5,30.12,NNE,13,1.0,1.0,83,0.00,,---,0.08,0.00,VWS V14.00,2013-05-05 05:01:00,
2013-05-05 00:06:00,39.2,34.5,30.11,NNE,18,3.0,3.0,83,0.00,,---,0.00,0.00,VWS V14.00,2013-05-05 05:06:00,
2013-05-05 00:11:00,39.2,34.5,30.11,NE,34,1.0,3.0,83,0.00,,---,0.00,0.00,VWS V14.00,2013-05-05 05:11:00,
2013-05-05 00:16:00,39.2,34.5,30.11,North,354,1.0,1.0,83,0.00,,---,0.00,0.00,VWS V14.00,2013-05-05 05:16:00,
2013-05-05 00:21:00,39.2,34.5,30.11,North,359,3.0,3.0,83,0.00,,---,0.00,0.00,VWS V14.00,2013-05-05 05:21:00,
2013-05-05 00:26:00,39.2,34.5,30.11,North,0,2.0,2.0,83,0.00,,---,0.00,0.00,VWS V14.00,2013-05-05 05:26:00,
2013-05-05 00:31:00,39.2,34.5,30.11,NE,37,4.0,4.0,83,0.00,,---,0.00,0.00,VWS V14.00,2013-05-05 05:31:00,
2013-05-05 00:36:00,39.2,34.5,30.11,North,0,7.0,7.0,83,0.00,,---,0.00,0.00,VWS V14.00,2013-05-05 05:36:00,
2013-05-05 00:41:00,39.2,34.5,30.11,North,0,3.0,3.0,83,0.00,,---,0.00,0.00,VWS V14.00,2013-05-05 05:41:00,
2013-05-05 00:46:00,38.9,34.2,30.11,NNE,20,5.0,5.0,83,0.00,,---,0.00,0.00,VWS V14.00,2013-05-05 05:46:00,
2013-05-05 00:51:00,38.9,34.2,30.11,North,0,5.0,5.0,83,0.00,,---,0.00,0.00,VWS V14.00,2013-05-05 05:51:00,
2013-05-05 00:56:00,38.9,34.2,30.11,North,0,2.0,2.0,83,0.00,,---,0.00,0.00,VWS V14.00,2013-05-05 05:56:00,
2013-05-05 01:01:00,38.9,34.5,30.11,NE,38,2.0,5.0,84,0.00,,---,0.00,0.00,VWS V14.00,2013-05-05 06:01:00,
2013-05-05 01:06:00,38.8,34.4,30.11,NE,56,3.0,3.0,84,0.00,,---,0.00,0.00,VWS V14.00,2013-05-05 06:06:00,
2013-05-05 01:11:00,38.8,34.4,30.11,North,0,3.0,3.0,84,0.00,,---,0.00,0.00,VWS V14.00,2013-05-05 06:11:00,
2013-05-05 01:16:00,38.8,34.4,30.11,NNE,31,2.0,2.0,84,0.00,,---,0.00,0.00,VWS V14.00,2013-05-05 06:16:00,
2013-05-05 01:21:00,38.8,34.4,30.10,North,359,0.0,0.0,84,0.00,,---,0.00,0.00,VWS V14.00,2013-05-05 06:21:00,
2013-05-05 01:26:00,38.8,34.4,30.10,NNE,18,2.0,2.0,84,0.00,,---,0.00,0.00,VWS V14.00,2013-05-05 06:26:00,
2013-05-05 01:31:00,38.8,34.7,30.10,North,359,2.0,2.0,85,0.00,,---,0.00,0.00,VWS V14.00,2013-05-05 06:31:00,
2013-05-05 01:36:00,38.8,34.7,30.10,NE,37,1.0,1.0,85,0.00,,---,0.00,0.00,VWS V14.00,2013-05-05 06:36:00,
2013-05-05 01:41:00,38.8,34.7,30.10,North,0,0.0,0.0,85,0.00,,---,0.00,0.00,VWS V14.00,2013-05-05 06:41:00,
2013-05-05 01:46:00,38.8,34.7,30.10,North,11,1.0,1.0,85,0.00,,---,0.00,0.00,VWS V14.00,2013-05-05 06:46:00,
2013-05-05 01:51:00,38.6,34.8,30.09,North,3,3.0,3.0,86,0.00,,---,0.00,0.00,VWS V14.00,2013-05-05 06:51:00,
2013-05-05 01:56:00,38.6,34.8,30.09,ENE,68,3.0,5.0,86,0.00,,---,0.00,0.00,VWS V14.00,2013-05-05 06:56:00,
2013-05-05 02:01:00,38.6,34.8,30.09,NE,48,2.0,2.0,86,0.00,,---,0.00,0.00,VWS V14.00,2013-05-05 07:01:00,
2013-05-05 02:06:00,38.6,34.8,30.09,North,350,3.0,3.0,86,0.00,,---,0.00,0.00,VWS V14.00,2013-05-05 07:06:00,
2013-05-05 02:11:00,38.6,34.8,30.09,North,0,3.0,3.0,86,0.00,,---,0.00,0.00,VWS V14.00,2013-05-05 07:11:00,
2013-05-05 02:15:00,38.6,34.8,30.09,North,0,3.0,3.0,86,0.00,,---,0.00,0.00,VWS V14.00,2013-05-05 07:15:00,
2013-05-05 02:20:00,38.5,34.7,30.08,North,0,3.0,3.0,86,0.00,,---,0.00,0.00,VWS V14.00,2013-05-05 07:20:00,
2013-05-05 02:25:00,38.5,34.7,30.08,North,359,2.0,2.0,86,0.00,,---,0.00,0.00,VWS V14.00,2013-05-05 07:25:00,
2013-05-05 02:30:00,38.5,34.7,30.08,North,0,6.0,6.0,86,0.00,,---,0.00,0.00,VWS V14.00,2013-05-05 07:30:00,
2013-05-05 02:35:00,38.5,34.7,30.08,NNW,342,5.0,5.0,86,0.00,,---,0.00,0.00,VWS V14.00,2013-05-05 07:35:00,
2013-05-05 02:40:00,38.5,34.7,30.08,NE,40,2.0,2.0,86,0.00,,---,0.00,0.00,VWS V14.00,2013-05-05 07:40:00,
2013-05-05 02:45:00,38.5,34.7,30.08,North,8,0.0,0.0,86,0.00,,---,0.00,0.00,VWS V14.00,2013-05-05 07:45:00,
2013-05-05 02:50:00,38.5,35.0,30.08,NE,34,5.0,5.0,87,0.00,,---,0.00,0.00,VWS V14.00,2013-05-05 07:50:00,
2013-05-05 02:55:00,38.3,34.8,30.08,NNW,330,1.0,5.0,87,0.00,,---,0.00,0.00,VWS V14.00,2013-05-05 07:55:00,
2013-05-05 03:00:00,38.3,34.8,30.08,NNE,24,5.0,5.0,87,0.00,,---,0.00,0.00,VWS V14.00,2013-05-05 08:00:00,
2013-05-05 03:05:00,38.3,34.8,30.08,North,1,1.0,1.0,87,0.00,,---,0.00,0.00,VWS V14.00,2013-05-05 08:05:00,
2013-05-05 03:10:00,38.3,34.8,30.08,North,6,4.0,4.0,87,0.00,,---,0.00,0.00,VWS V14.00,2013-05-05 08:10:00,
2013-05-05 03:15:00,38.3,34.8,30.08,SSE,160,2.0,2.0,87,0.00,,---,0.00,0.00,VWS V14.00,2013-05-05 08:15:00,
2013-05-05 03:20:00,38.3,34.8,30.08,North,6,1.0,1.0,87,0.00,,---,0.00,0.00,VWS V14.00,2013-05-05 08:20:00,
2013-05-05 03:25:00,38.3,34.8,30.08,NW,322,3.0,3.0,87,0.00,,---,0.00,0.00,VWS V14.00,2013-05-05 08:25:00,
2013-05-05 03:30:00,38.3,34.8,30.08,NNW,333,5.0,5.0,87,0.00,,---,0.00,0.00,VWS V14.00,2013-05-05 08:30:00,
2013-05-05 03:35:00,38.3,34.8,30.08,North,1,1.0,1.0,87,0.00,,---,0.00,0.00,VWS V14.00,2013-05-05 08:35:00,
2013-05-05 03:40:00,38.3,34.8,30.08,North,0,4.0,4.0,87,0.00,,---,0.00,0.00,VWS V14.00,2013-05-05 08:40:00,
2013-05-05 03:45:00,38.3,34.8,30.08,North,0,2.0,2.0,87,0.00,,---,0.00,0.00,VWS V14.00,2013-05-05 08:45:00,
2013-05-05 03:50:00,38.2,34.7,30.08,North,0,2.0,2.0,87,0.00,,---,0.00,0.00,VWS V14.00,2013-05-05 08:50:00,
2013-05-05 03:55:00,38.2,34.7,30.08,North,359,1.0,1.0,87,0.00,,---,0.00,0.00,VWS V14.00,2013-05-05 08:55:00,
2013-05-05 04:00:00,38.2,34.7,30.08,North,0,6.0,6.0,87,0.00,,---,0.00,0.00,VWS V14.00,2013-05-05 09:00:00,
2013-05-05 04:05:00,38.2,34.7,30.09,North,0,3.0,3.0,87,0.00,,---,0.00,0.00,VWS V14.00,2013-05-05 09:05:00,
2013-05-05 04:10:00,38.2,34.7,30.09,North,0,5.0,5.0,87,0.00,,---,0.00,0.00,VWS V14.00,2013-05-05 09:10:00,
2013-05-05 04:15:00,38.0,34.5,30.09,North,8,1.0,1.0,87,0.00,,---,0.00,0.00,VWS V14.00,2013-05-05 09:15:00,
2013-05-05 04:20:00,38.0,34.5,30.09,NNE,27,1.0,1.0,87,0.00,,---,0.00,0.00,VWS V14.00,2013-05-05 09:20:00,
2013-05-05 04:25:00,38.0,34.5,30.09,North,356,3.0,3.0,87,0.00,,---,0.00,0.00,VWS V14.00,2013-05-05 09:25:00,
2013-05-05 04:30:00,38.0,34.5,30.09,NE,34,2.0,2.0,87,0.00,,---,0.00,0.00,VWS V14.00,2013-05-05 09:30:00,
2013-05-05 04:35:00,37.9,34.4,30.09,North,359,5.0,6.0,87,0.00,,---,0.00,0.00,VWS V14.00,2013-05-05 09:35:00,
2013-05-05 04:40:00,37.9,34.4,30.09,North,359,2.0,2.0,87,0.00,,---,0.00,0.00,VWS V14.00,2013-05-05 09:40:00,
2013-05-05 04:45:00,37.9,34.4,30.09,North,0,5.0,5.0,87,0.00,,---,0.00,0.00,VWS V14.00,2013-05-05 09:45:00,
2013-05-05 04:50:00,37.8,34.3,30.09,North,4,2.0,2.0,87,0.00,,---,0.00,0.00,VWS V14.00,2013-05-05 09:50:00,
2013-05-05 04:55:00,37.8,34.3,30.09,NE,51,2.0,2.0,87,0.00,,---,0.00,0.00,VWS V14.00,2013-05-05 09:55:00,
2013-05-05 05:00:00,37.6,34.1,30.09,North,354,3.0,3.0,87,0.00,,---,0.00,0.00,VWS V14.00,2013-05-05 10:00:00,
2013-05-05 05:05:00,37.6,34.1,30.09,North,4,2.0,2.0,87,0.00,,---,0.00,0.00,VWS V14.00,2013-05-05 10:05:00,
2013-05-05 05:10:00,37.6,34.1,30.09,NNW,347,1.0,1.0,87,0.00,,---,0.00,0.00,VWS V14.00,2013-05-05 10:10:00,
2013-05-05 05:15:00,37.6,34.1,30.09,North,0,3.0,3.0,87,0.00,,---,0.00,0.00,VWS V14.00,2013-05-05 10:15:00,
2013-05-05 05:20:00,37.6,33.8,30.09,North,356,2.0,2.0,86,0.00,,---,0.00,0.00,VWS V14.00,2013-05-05 10:20:00,
2013-05-05 05:25:00,37.6,33.8,30.09,North,3,2.0,3.0,86,0.00,,---,0.00,0.00,VWS V14.00,2013-05-05 10:25:00,
2013-05-05 05:30:00,37.5,33.7,30.09,NNW,347,2.0,2.0,86,0.00,,---,0.00,0.00,VWS V14.00,2013-05-05 10:30:00,
2013-05-05 05:35:00,37.5,33.7,30.09,North,349,2.0,3.0,86,0.00,,---,0.00,0.00,VWS V14.00,2013-05-05 10:35:00,
2013-05-05 05:40:00,37.5,33.7,30.09,NNE,16,3.0,3.0,86,0.00,,---,0.00,0.00,VWS V14.00,2013-05-05 10:40:00,
2013-05-05 05:45:00,37.3,33.5,30.09,North,0,3.0,3.0,86,0.00,,---,0.00,0.00,VWS V14.00,2013-05-05 10:45:00,
2013-05-05 05:50:00,37.2,33.4,30.09,North,0,2.0,2.0,86,0.00,,---,0.00,0.00,VWS V14.00,2013-05-05 10:50:00,
2013-05-05 05:55:00,37.2,33.4,30.09,North,0,3.0,3.0,86,0.00,,---,0.00,0.00,VWS V14.00,2013-05-05 10:55:00,
2013-05-05 06:00:00,37.2,33.4,30.09,NNE,14,0.0,0.0,86,0.00,,---,0.00,0.00,VWS V14.00,2013-05-05 11:00:00,
2013-05-05 06:05:00,37.2,33.4,30.09,North,359,2.0,2.0,86,0.00,,---,0.00,0.00,VWS V14.00,2013-05-05 11:05:00,
2013-05-05 06:10:00,37.2,33.4,30.09,NNE,17,1.0,1.0,86,0.00,,---,0.00,0.00,VWS V14.00,2013-05-05 11:10:00,
2013-05-05 06:15:00,37.2,33.4,30.09,North,0,3.0,3.0,86,0.00,,---,0.00,0.00,VWS V14.00,2013-05-05 11:15:00,
2013-05-05 06:20:00,37.2,33.4,30.10,North,0,0.0,0.0,86,0.00,,---,0.00,0.00,VWS V14.00,2013-05-05 11:20:00,
2013-05-05 06:25:00,37.2,33.4,30.10,North,0,2.0,3.0,86,0.00,,---,0.00,0.00,VWS V14.00,2013-05-05 11:25:00,
2013-05-05 06:30:00,37.2,33.7,30.10,North,0,2.0,5.0,87,0.00,,---,0.00,0.00,VWS V14.00,2013-05-05 11:30:00,
2013-05-05 06:35:00,37.2,33.7,30.10,North,359,3.0,4.0,87,0.00,,---,0.00,7.00,VWS V14.00,2013-05-05 11:35:00,
2013-05-05 06:40:00,37.2,33.7,30.10,North,0,0.0,4.0,87,0.00,,---,0.00,9.00,VWS V14.00,2013-05-05 11:40:00,
2013-05-05 06:45:00,37.2,33.7,30.10,North,0,5.0,5.0,87,0.00,,---,0.00,18.00,VWS V14.00,2013-05-05 11:45:00,
2013-05-05 06:50:00,37.2,33.7,30.10,North,0,2.0,2.0,87,0.00,,---,0.00,18.00,VWS V14.00,2013-05-05 11:50:00,
2013-05-05 06:55:00,37.2,33.7,30.10,North,1,5.0,5.0,87,0.00,,---,0.00,18.00,VWS V14.00,2013-05-05 11:55:00,
2013-05-05 07:00:00,37.3,33.8,30.10,North,0,2.0,2.0,87,0.00,,---,0.00,18.00,VWS V14.00,2013-05-05 12:00:00,
2013-05-05 07:05:00,37.3,33.8,30.10,NW,322,2.0,2.0,87,0.00,,---,0.00,18.00,VWS V14.00,2013-05-05 12:05:00,
2013-05-05 07:10:00,37.5,34.0,30.10,NNW,342,5.0,5.0,87,0.00,,---,0.00,49.00,VWS V14.00,2013-05-05 12:10:00,
2013-05-05 07:15:00,37.5,34.0,30.10,NNE,17,2.0,2.0,87,0.00,,---,0.00,49.00,VWS V14.00,2013-05-05 12:15:00,
2013-05-05 07:20:00,37.6,34.1,30.10,North,357,6.0,6.0,87,0.00,,---,0.00,49.00,VWS V14.00,2013-05-05 12:20:00,
2013-05-05 07:25:00,37.6,34.1,30.10,NE,44,6.0,6.0,87,0.00,,---,0.00,49.00,VWS V14.00,2013-05-05 12:25:00,
2013-05-05 07:30:00,37.8,34.3,30.10,North,349,4.0,4.0,87,0.00,,---,0.00,49.00,VWS V14.00,2013-05-05 12:30:00,
2013-05-05 07:35:00,37.9,34.4,30.10,NNE,25,5.0,5.0,87,0.00,,---,0.00,49.00,VWS V14.00,2013-05-05 12:35:00,
2013-05-05 07:40:00,38.0,34.5,30.10,North,0,4.0,5.0,87,0.00,,---,0.00,49.00,VWS V14.00,2013-05-05 12:40:00,
2013-05-05 07:45:00,38.3,34.8,30.10,North,11,2.0,2.0,87,0.00,,---,0.00,49.00,VWS V14.00,2013-05-05 12:45:00,
2013-05-05 07:50:00,38.3,34.8,30.10,East,88,1.0,1.0,87,0.00,,---,0.00,49.00,VWS V14.00,2013-05-05 12:50:00,
2013-05-05 07:55:00,38.6,35.1,30.10,East,86,3.0,3.0,87,0.00,,---,0.00,49.00,VWS V14.00,2013-05-05 12:55:00,
2013-05-05 08:00:00,38.9,35.4,30.10,North,353,2.0,2.0,87,0.00,,---,0.00,176.00,VWS V14.00,2013-05-05 13:00:00,
2013-05-05 08:05:00,39.1,35.6,30.11,NNE,17,3.0,3.0,87,0.00,,---,0.00,176.00,VWS V14.00,2013-05-05 13:05:00,
2013-05-05 08:10:00,39.1,35.6,30.11,North,359,5.0,5.0,87,0.00,,---,0.00,176.00,VWS V14.00,2013-05-05 13:10:00,
2013-05-05 08:15:00,39.2,34.8,30.11,North,0,6.0,6.0,84,0.00,,---,0.00,176.00,VWS V14.00,2013-05-05 13:15:00,
2013-05-05 08:20:00,39.3,34.9,30.11,NNE,16,6.0,6.0,84,0.00,,---,0.00,179.00,VWS V14.00,2013-05-05 13:20:00,
2013-05-05 08:25:00,39.3,34.9,30.11,NNE,20,2.0,2.0,84,0.00,,---,0.00,211.00,VWS V14.00,2013-05-05 13:25:00,
2013-05-05 08:30:00,39.6,34.9,30.11,East,96,2.0,5.0,83,0.00,,---,0.00,211.00,VWS V14.00,2013-05-05 13:30:00,
2013-05-05 08:35:00,39.8,35.1,30.11,North,8,4.0,4.0,83,0.00,,---,0.00,229.00,VWS V14.00,2013-05-05 13:35:00,
2013-05-05 08:40:00,39.9,35.2,30.11,NNE,17,3.0,3.0,83,0.00,,---,0.00,246.00,VWS V14.00,2013-05-05 13:40:00,
2013-05-05 08:45:00,39.9,35.2,30.11,North,353,3.0,3.0,83,0.00,,---,0.00,246.00,VWS V14.00,2013-05-05 13:45:00,
2013-05-05 08:50:00,40.2,35.2,30.11,North,349,2.0,2.0,82,0.00,,---,0.00,246.00,VWS V14.00,2013-05-05 13:50:00,
2013-05-05 08:55:00,40.2,35.2,30.11,North,6,3.0,3.0,82,0.00,,---,0.00,246.00,VWS V14.00,2013-05-05 13:55:00,
2013-05-05 09:00:00,40.2,35.2,30.11,North,0,2.0,2.0,82,0.00,,---,0.00,246.00,VWS V14.00,2013-05-05 14:00:00,
2013-05-05 09:05:00,40.8,35.7,30.11,WNW,298,1.0,1.0,82,0.00,,---,0.00,246.00,VWS V14.00,2013-05-05 14:05:00,
2013-05-05 09:10:00,41.3,36.2,30.11,North,3,5.0,5.0,82,0.00,,---,0.00,262.00,VWS V14.00,2013-05-05 14:10:00,
2013-05-05 09:15:00,41.6,36.5,30.11,NE,35,1.0,1.0,82,0.00,,---,0.00,262.00,VWS V14.00,2013-05-05 14:15:00,
2013-05-05 09:20:00,42.1,37.0,30.11,North,0,4.0,4.0,82,0.00,,---,0.00,262.00,VWS V14.00,2013-05-05 14:20:00,
2013-05-05 09:25:00,42.3,37.2,30.11,NNW,340,1.0,3.0,82,0.00,,---,0.00,262.00,VWS V14.00,2013-05-05 14:25:00,
2013-05-05 09:30:00,42.5,37.4,30.11,NNW,329,6.0,6.0,82,0.00,,---,0.00,262.00,VWS V14.00,2013-05-05 14:30:00,
2013-05-05 09:35:00,42.8,37.7,30.10,NE,42,1.0,1.0,82,0.00,,---,0.00,262.00,VWS V14.00,2013-05-05 14:35:00,
2013-05-05 09:40:00,43.2,38.1,30.10,NNE,31,3.0,3.0,82,0.00,,---,0.00,262.00,VWS V14.00,2013-05-05 14:40:00,
2013-05-05 09:45:00,43.3,36.6,30.10,North,357,3.0,3.0,77,0.00,,---,0.00,262.00,VWS V14.00,2013-05-05 14:45:00,
2013-05-05 09:50:00,43.8,36.7,30.10,NNE,14,1.0,2.0,76,0.00,,---,0.00,588.00,VWS V14.00,2013-05-05 14:50:00,
2013-05-05 09:55:00,44.1,36.7,30.10,NW,306,7.0,7.0,75,0.00,,---,0.00,454.00,VWS V14.00,2013-05-05 14:55:00,
2013-05-05 10:00:00,44.1,36.4,30.10,NW,325,8.0,8.0,74,0.00,,---,0.00,438.00,VWS V14.00,2013-05-05 15:00:00,
2013-05-05 10:05:00,43.9,36.2,30.10,North,4,4.0,4.0,74,0.00,,---,0.00,438.00,VWS V14.00,2013-05-05 15:05:00,
2013-05-05 10:10:00,43.9,36.2,30.10,NW,322,4.0,4.0,74,0.00,,---,0.00,438.00,VWS V14.00,2013-05-05 15:10:00,
2013-05-05 10:15:00,44.9,37.1,30.10,NW,309,5.0,5.0,74,0.00,,---,0.00,438.00,VWS V14.00,2013-05-05 15:15:00,
2013-05-05 10:20:00,44.8,37.0,30.09,North,0,2.0,4.0,74,0.00,,---,0.00,438.00,VWS V14.00,2013-05-05 15:20:00,
2013-05-05 10:25:00,44.9,36.8,30.09,North,354,2.0,2.0,73,0.00,,---,0.00,438.00,VWS V14.00,2013-05-05 15:25:00,
2013-05-05 10:30:00,45.5,37.4,30.09,North,10,4.0,5.0,73,0.00,,---,0.00,436.00,VWS V14.00,2013-05-05 15:30:00,
2013-05-05 10:35:00,46.0,37.8,30.09,NW,308,4.0,4.0,73,0.00,,---,0.00,436.00,VWS V14.00,2013-05-05 15:35:00,
2013-05-05 10:40:00,46.5,38.3,30.09,WNW,285,5.0,6.0,73,0.00,,---,0.00,436.00,VWS V14.00,2013-05-05 15:40:00,
2013-05-05 10:45:00,46.5,38.3,30.09,North,350,2.0,2.0,73,0.00,,---,0.00,436.00,VWS V14.00,2013-05-05 15:45:00,
2013-05-05 10:50:00,46.5,37.6,30.09,NNW,336,5.0,6.0,71,0.00,,---,0.00,436.00,VWS V14.00,2013-05-05 15:50:00,
2013-05-05 10:55:00,46.2,37.7,30.09,NW,323,4.0,4.0,72,0.00,,---,0.00,436.00,VWS V14.00,2013-05-05 15:55:00,
2013-05-05 11:00:00,46.7,38.2,30.09,WNW,292,5.0,5.0,72,0.00,,---,0.00,436.00,VWS V14.00,2013-05-05 16:00:00,
2013-05-05 11:05:00,47.0,38.5,30.09,NW,326,4.0,4.0,72,0.00,,---,0.00,449.00,VWS V14.00,2013-05-05 16:05:00,
2013-05-05 11:10:00,47.3,38.7,30.09,NE,44,5.0,5.0,72,0.00,,---,0.00,449.00,VWS V14.00,2013-05-05 16:10:00,
2013-05-05 11:14:00,47.6,39.0,30.09,NE,35,3.0,3.0,72,0.00,,---,0.00,449.00,VWS V14.00,2013-05-05 16:14:00,
2013-05-05 11:19:00,47.6,39.0,30.09,NNW,347,3.0,3.0,72,0.00,,---,0.00,449.00,VWS V14.00,2013-05-05 16:19:00,
2013-05-05 11:25:00,47.6,39.0,30.09,North,4,5.0,5.0,72,0.00,,---,0.00,449.00,VWS V14.00,2013-05-05 16:25:00,
2013-05-05 11:29:00,47.6,39.0,30.09,NE,44,2.0,5.0,72,0.00,,---,0.00,449.00,VWS V14.00,2013-05-05 16:29:00,
2013-05-05 11:34:00,48.3,39.7,30.09,North,0,1.0,1.0,72,0.00,,---,0.00,417.00,VWS V14.00,2013-05-05 16:34:00,
2013-05-05 11:40:00,48.5,39.9,30.09,NE,45,5.0,6.0,72,0.00,,---,0.00,505.00,VWS V14.00,2013-05-05 16:40:00,
2013-05-05 11:44:00,48.5,39.9,30.09,NNW,340,2.0,2.0,72,0.00,,---,0.00,505.00,VWS V14.00,2013-05-05 16:44:00,
2013-05-05 11:49:00,48.5,39.9,30.09,NW,304,4.0,4.0,72,0.00,,---,0.00,505.00,VWS V14.00,2013-05-05 16:49:00,
2013-05-05 11:54:00,48.2,39.6,30.09,North,350,2.0,2.0,72,0.00,,---,0.00,505.00,VWS V14.00,2013-05-05 16:54:00,
2013-05-05 11:59:00,48.3,39.7,30.09,NNE,23,2.0,2.0,72,0.00,,---,0.00,505.00,VWS V14.00,2013-05-05 16:59:00,
2013-05-05 12:04:00,48.9,39.2,30.08,North,11,4.0,4.0,69,0.00,,---,0.00,428.00,VWS V14.00,2013-05-05 17:04:00,
2013-05-05 12:09:00,49.5,39.4,30.08,ENE,73,2.0,3.0,68,0.00,,---,0.00,447.00,VWS V14.00,2013-05-05 17:09:00,
2013-05-05 12:14:00,49.5,39.4,30.08,SE,127,2.0,2.0,68,0.00,,---,0.00,447.00,VWS V14.00,2013-05-05 17:14:00,
2013-05-05 12:19:00,50.1,40.0,30.08,North,0,4.0,4.0,68,0.00,,---,0.00,447.00,VWS V14.00,2013-05-05 17:19:00,
2013-05-05 12:24:00,50.1,39.2,30.08,SE,124,3.0,3.0,66,0.00,,---,0.00,447.00,VWS V14.00,2013-05-05 17:24:00,
2013-05-05 12:29:00,50.7,39.8,30.08,NE,55,3.0,3.0,66,0.00,,---,0.00,447.00,VWS V14.00,2013-05-05 17:29:00,
2013-05-05 12:34:00,51.1,40.2,30.07,East,80,3.0,3.0,66,0.00,,---,0.00,447.00,VWS V14.00,2013-05-05 17:34:00,
2013-05-05 12:39:00,51.1,40.2,30.07,NE,51,3.0,3.0,66,0.00,,---,0.00,447.00,VWS V14.00,2013-05-05 17:39:00,
2013-05-05 12:44:00,51.7,40.7,30.07,East,100,5.0,5.0,66,0.00,,---,0.00,440.00,VWS V14.00,2013-05-05 17:44:00,
2013-05-05 12:49:00,51.7,40.7,30.07,NE,40,6.0,6.0,66,0.00,,---,0.00,440.00,VWS V14.00,2013-05-05 17:49:00,
2013-05-05 12:54:00,52.0,41.0,30.07,ENE,75,0.0,0.0,66,0.00,,---,0.00,450.00,VWS V14.00,2013-05-05 17:54:00,
2013-05-05 12:59:00,52.0,41.0,30.07,NNE,18,3.0,6.0,66,0.00,,---,0.00,450.00,VWS V14.00,2013-05-05 17:59:00,
2013-05-05 13:04:00,52.2,40.4,30.07,NE,34,2.0,2.0,64,0.00,,---,0.00,445.00,VWS V14.00,2013-05-05 18:04:00,
2013-05-05 13:09:00,52.5,40.7,30.07,ENE,72,2.0,2.0,64,0.00,,---,0.00,445.00,VWS V14.00,2013-05-05 18:09:00,
2013-05-05 13:14:00,52.5,40.7,30.07,ESE,107,5.0,5.0,64,0.00,,---,0.00,445.00,VWS V14.00,2013-05-05 18:14:00,
2013-05-05 13:19:00,53.2,41.3,30.06,NE,37,4.0,5.0,64,0.00,,---,0.00,445.00,VWS V14.00,2013-05-05 18:19:00,
2013-05-05 13:24:00,53.3,41.5,30.06,NE,56,2.0,2.0,64,0.00,,---,0.00,445.00,VWS V14.00,2013-05-05 18:24:00,
2013-05-05 13:29:00,53.9,41.2,30.06,NE,40,7.0,7.0,62,0.00,,---,0.00,445.00,VWS V14.00,2013-05-05 18:29:00,
2013-05-05 13:34:00,53.9,41.2,30.06,NE,54,3.0,3.0,62,0.00,,---,0.00,445.00,VWS V14.00,2013-05-05 18:34:00,
2013-05-05 13:39:00,54.7,42.0,30.06,NE,51,5.0,5.0,62,0.00,,---,0.00,445.00,VWS V14.00,2013-05-05 18:39:00,
2013-05-05 13:44:00,55.1,41.5,30.06,NE,35,6.0,6.0,60,0.00,,---,0.00,445.00,VWS V14.00,2013-05-05 18:44:00,
2013-05-05 13:49:00,55.7,42.0,30.05,North,357,1.0,1.0,60,0.00,,---,0.00,445.00,VWS V14.00,2013-05-05 18:49:00,
2013-05-05 13:54:00,56.9,42.7,30.05,SSW,205,2.0,2.0,59,0.00,,---,0.00,445.00,VWS V14.00,2013-05-05 18:54:00,
2013-05-05 13:59:00,56.9,42.7,30.05,NNE,31,6.0,6.0,59,0.00,,---,0.00,445.00,VWS V14.00,2013-05-05 18:59:00,
2013-05-05 14:04:00,56.6,42.5,30.05,North,359,6.0,6.0,59,0.00,,---,0.00,445.00,VWS V14.00,2013-05-05 19:04:00,
2013-05-05 14:09:00,56.6,42.5,30.05,ENE,64,6.0,6.0,59,0.00,,---,0.00,445.00,VWS V14.00,2013-05-05 19:09:00,
2013-05-05 14:14:00,56.5,42.4,30.05,NNE,30,2.0,4.0,59,0.00,,---,0.00,445.00,VWS V14.00,2013-05-05 19:14:00,
2013-05-05 14:19:00,57.3,43.1,30.05,SE,124,6.0,6.0,59,0.00,,---,0.00,445.00,VWS V14.00,2013-05-05 19:19:00,
2013-05-05 14:24:00,58.3,43.6,30.05,NNE,31,1.0,3.0,58,0.00,,---,0.00,445.00,VWS V14.00,2013-05-05 19:24:00,
2013-05-05 14:29:00,58.3,43.2,30.05,NE,48,3.0,3.0,57,0.00,,---,0.00,445.00,VWS V14.00,2013-05-05 19:29:00,
2013-05-05 14:34:00,58.3,43.2,30.04,ENE,66,6.0,6.0,57,0.00,,---,0.00,445.00,VWS V14.00,2013-05-05 19:34:00,
2013-05-05 14:39:00,58.3,43.2,30.04,NNE,23,5.0,5.0,57,0.00,,---,0.00,445.00,VWS V14.00,2013-05-05 19:39:00,
2013-05-05 14:44:00,58.0,42.9,30.04,East,92,2.0,2.0,57,0.00,,---,0.00,445.00,VWS V14.00,2013-05-05 19:44:00,
2013-05-05 14:49:00,58.3,43.2,30.03,NE,45,1.0,3.0,57,0.00,,---,0.00,445.00,VWS V14.00,2013-05-05 19:49:00,
2013-05-05 14:54:00,58.7,43.5,30.03,NNE,20,3.0,3.0,57,0.00,,---,0.00,297.00,VWS V14.00,2013-05-05 19:54:00,
2013-05-05 14:59:00,59.2,44.0,30.03,East,92,2.0,2.0,57,0.00,,---,0.00,287.00,VWS V14.00,2013-05-05 19:59:00,
2013-05-05 15:04:00,59.0,43.8,30.03,ENE,64,4.0,4.0,57,0.00,,---,0.00,287.00,VWS V14.00,2013-05-05 20:04:00,
2013-05-05 15:09:00,59.0,43.8,30.03,ESE,103,2.0,2.0,57,0.00,,---,0.00,287.00,VWS V14.00,2013-05-05 20:09:00,
2013-05-05 15:14:00,59.5,43.8,30.03,North,0,2.0,2.0,56,0.00,,---,0.00,287.00,VWS V14.00,2013-05-05 20:14:00,
2013-05-05 15:19:00,59.5,43.8,30.02,North,7,2.0,2.0,56,0.00,,---,0.00,287.00,VWS V14.00,2013-05-05 20:19:00,
2013-05-05 15:24:00,59.5,43.8,30.02,ENE,73,3.0,3.0,56,0.00,,---,0.00,287.00,VWS V14.00,2013-05-05 20:24:00,
2013-05-05 15:29:00,59.5,43.8,30.02,NNE,27,3.0,3.0,56,0.00,,---,0.00,743.00,VWS V14.00,2013-05-05 20:29:00,
2013-05-05 15:34:00,60.4,43.7,30.02,NW,326,5.0,5.0,54,0.00,,---,0.00,746.00,VWS V14.00,2013-05-05 20:34:00,
2013-05-05 15:39:00,60.4,43.7,30.02,NW,305,2.0,2.0,54,0.00,,---,0.00,746.00,VWS V14.00,2013-05-05 20:39:00,
2013-05-05 15:44:00,60.4,44.2,30.02,ESE,106,2.0,2.0,55,0.00,,---,0.00,591.00,VWS V14.00,2013-05-05 20:44:00,
2013-05-05 15:49:00,60.7,44.5,30.01,NE,41,3.0,3.0,55,0.00,,---,0.00,681.00,VWS V14.00,2013-05-05 20:49:00,
2013-05-05 15:54:00,61.3,45.5,30.01,ENE,61,1.0,1.0,56,0.00,,---,0.00,676.00,VWS V14.00,2013-05-05 20:54:00,
2013-05-05 15:59:00,61.8,46.0,30.01,NNW,342,2.0,2.0,56,0.00,,---,0.00,676.00,VWS V14.00,2013-05-05 20:59:00,
2013-05-05 16:04:00,62.3,45.0,30.01,North,354,3.0,3.0,53,0.00,,---,0.00,676.00,VWS V14.00,2013-05-05 21:04:00,
2013-05-05 16:09:00,62.7,45.3,30.01,North,359,3.0,3.0,53,0.00,,---,0.00,676.00,VWS V14.00,2013-05-05 21:09:00,
2013-05-05 16:14:00,62.9,44.5,30.01,NNW,330,2.0,2.0,51,0.00,,---,0.00,676.00,VWS V14.00,2013-05-05 21:14:00,
2013-05-05 16:19:00,62.7,44.3,30.00,NNW,343,2.0,2.0,51,0.00,,---,0.00,637.00,VWS V14.00,2013-05-05 21:19:00,
2013-05-05 16:24:00,62.7,44.3,30.00,NE,34,3.0,3.0,51,0.00,,---,0.00,637.00,VWS V14.00,2013-05-05 21:24:00,
2013-05-05 16:29:00,62.6,44.2,30.00,North,0,3.0,3.0,51,0.00,,---,0.00,637.00,VWS V14.00,2013-05-05 21:29:00,
2013-05-05 16:34:00,62.9,44.5,30.00,East,92,0.0,0.0,51,0.00,,---,0.00,602.00,VWS V14.00,2013-05-05 21:34:00,
2013-05-05 16:39:00,63.4,45.5,30.00,NNE,21,1.0,2.0,52,0.00,,---,0.00,591.00,VWS V14.00,2013-05-05 21:39:00,
2013-05-05 16:44:00,63.5,45.6,30.00,North,6,0.0,0.0,52,0.00,,---,0.00,568.00,VWS V14.00,2013-05-05 21:44:00,
2013-05-05 16:49:00,63.5,45.6,30.00,SE,126,1.0,1.0,52,0.00,,---,0.00,568.00,VWS V14.00,2013-05-05 21:49:00,
2013-05-05 16:54:00,63.9,45.4,30.00,NE,40,3.0,3.0,51,0.00,,---,0.00,568.00,VWS V14.00,2013-05-05 21:54:00,
2013-05-05 16:59:00,63.9,45.4,30.00,ESE,103,2.0,2.0,51,0.00,,---,0.00,519.00,VWS V14.00,2013-05-05 21:59:00,
2013-05-05 17:04:00,63.9,45.4,29.99,NE,35,4.0,4.0,51,0.00,,---,0.00,521.00,VWS V14.00,2013-05-05 22:04:00,
2013-05-05 17:09:00,64.0,45.5,29.99,ENE,68,1.0,1.0,51,0.00,,---,0.00,521.00,VWS V14.00,2013-05-05 22:09:00,
2013-05-05 17:14:00,64.2,45.7,29.99,East,79,3.0,3.0,51,0.00,,---,0.00,521.00,VWS V14.00,2013-05-05 22:14:00,
2013-05-05 17:19:00,64.2,46.2,30.00,North,0,3.0,3.0,52,0.00,,---,0.00,521.00,VWS V14.00,2013-05-05 22:19:00,
2013-05-05 17:24:00,64.2,46.2,30.00,North,11,1.0,1.0,52,0.00,,---,0.00,521.00,VWS V14.00,2013-05-05 22:24:00,
2013-05-05 17:29:00,64.2,46.2,30.00,NE,52,0.0,0.0,52,0.00,,---,0.00,521.00,VWS V14.00,2013-05-05 22:29:00,
2013-05-05 17:34:00,64.3,45.8,29.99,ENE,62,5.0,8.0,51,0.00,,---,0.00,521.00,VWS V14.00,2013-05-05 22:34:00,
2013-05-05 17:39:00,64.3,45.8,29.99,NE,49,5.0,5.0,51,0.00,,---,0.00,521.00,VWS V14.00,2013-05-05 22:39:00,
2013-05-05 17:44:00,64.3,45.8,29.99,NE,45,5.0,5.0,51,0.00,,---,0.00,521.00,VWS V14.00,2013-05-05 22:44:00,
2013-05-05 17:49:00,64.3,45.8,29.99,NNE,16,3.0,3.0,51,0.00,,---,0.00,521.00,VWS V14.00,2013-05-05 22:49:00,
2013-05-05 17:54:00,64.2,45.7,29.99,NE,38,6.0,6.0,51,0.00,,---,0.00,521.00,VWS V14.00,2013-05-05 22:54:00,
2013-05-05 17:59:00,64.2,45.7,29.99,ENE,76,2.0,2.0,51,0.00,,---,0.00,521.00,VWS V14.00,2013-05-05 22:59:00,
2013-05-05 18:04:00,63.9,45.4,29.99,NNE,17,1.0,3.0,51,0.00,,---,0.00,521.00,VWS V14.00,2013-05-05 23:04:00,
2013-05-05 18:09:00,63.9,46.0,29.99,North,354,2.0,2.0,52,0.00,,---,0.00,521.00,VWS V14.00,2013-05-05 23:09:00,
2013-05-05 18:14:00,64.2,45.7,29.99,WNW,294,2.0,2.0,51,0.00,,---,0.00,215.00,VWS V14.00,2013-05-05 23:14:00,
2013-05-05 18:19:00,64.3,45.8,29.99,ENE,58,2.0,2.0,51,0.00,,---,0.00,215.00,VWS V14.00,2013-05-05 23:19:00,
2013-05-05 18:24:00,64.5,46.0,29.99,North,359,3.0,3.0,51,0.00,,---,0.00,215.00,VWS V14.00,2013-05-05 23:24:00,
2013-05-05 18:29:00,64.5,46.0,29.99,ENE,64,5.0,5.0,51,0.00,,---,0.00,215.00,VWS V14.00,2013-05-05 23:29:00,
2013-05-05 18:34:00,64.3,45.8,29.99,NW,318,2.0,2.0,51,0.00,,---,0.00,215.00,VWS V14.00,2013-05-05 23:34:00,
2013-05-05 18:39:00,64.3,45.8,29.99,North,352,3.0,3.0,51,0.00,,---,0.00,234.00,VWS V14.00,2013-05-05 23:39:00,
2013-05-05 18:44:00,64.5,46.0,29.99,NNE,32,2.0,5.0,51,0.00,,---,0.00,234.00,VWS V14.00,2013-05-05 23:44:00,
2013-05-05 18:49:00,64.5,46.0,29.99,NE,34,3.0,5.0,51,0.00,,---,0.00,234.00,VWS V14.00,2013-05-05 23:49:00,
2013-05-05 18:54:00,64.5,46.0,29.99,NNE,20,2.0,5.0,51,0.00,,---,0.00,234.00,VWS V14.00,2013-05-05 23:54:00,
2013-05-05 18:59:00,64.3,45.8,29.99,NE,34,1.0,2.0,51,0.00,,---,0.00,234.00,VWS V14.00,2013-05-05 23:59:00,
2013-05-05 19:04:00,64.5,46.0,29.99,NE,48,2.0,3.0,51,0.00,,---,0.00,120.00,VWS V14.00,2013-05-06 00:04:00,
2013-05-05 19:09:00,64.5,46.0,29.99,ENE,61,2.0,2.0,51,0.00,,---,0.00,120.00,VWS V14.00,2013-05-06 00:09:00,
2013-05-05 19:14:00,64.3,45.8,29.99,North,10,2.0,2.0,51,0.00,,---,0.00,120.00,VWS V14.00,2013-05-06 00:14:00,
2013-05-05 19:19:00,64.5,46.0,29.99,North,0,3.0,3.0,51,0.00,,---,0.00,120.00,VWS V14.00,2013-05-06 00:19:00,
2013-05-05 19:24:00,64.3,45.8,29.99,NE,41,2.0,2.0,51,0.00,,---,0.00,120.00,VWS V14.00,2013-05-06 00:24:00,
2013-05-05 19:29:00,64.2,45.7,29.99,NE,35,1.0,3.0,51,0.00,,---,0.00,79.00,VWS V14.00,2013-05-06 00:29:00,
2013-05-05 19:34:00,64.2,45.7,29.99,NNE,30,1.0,1.0,51,0.00,,---,0.00,67.00,VWS V14.00,2013-05-06 00:34:00,
2013-05-05 19:39:00,63.9,46.0,29.99,NE,47,1.0,1.0,52,0.00,,---,0.00,67.00,VWS V14.00,2013-05-06 00:39:00,
2013-05-05 19:44:00,63.7,45.8,29.99,NNE,20,5.0,5.0,52,0.00,,---,0.00,39.00,VWS V14.00,2013-05-06 00:44:00,
2013-05-05 19:49:00,63.7,45.8,29.99,NE,38,2.0,2.0,52,0.00,,---,0.00,40.00,VWS V14.00,2013-05-06 00:49:00,
2013-05-05 19:54:00,63.4,46.0,29.99,NE,38,1.0,1.0,53,0.00,,---,0.00,28.00,VWS V14.00,2013-05-06 00:54:00,
2013-05-05 19:59:00,63.2,45.8,29.99,NNE,28,1.0,1.0,53,0.00,,---,0.00,28.00,VWS V14.00,2013-05-06 00:59:00,
2013-05-05 20:04:00,63.2,45.8,29.99,NNE,28,1.0,2.0,53,0.00,,---,0.00,25.00,VWS V14.00,2013-05-06 01:04:00,
2013-05-05 20:09:00,62.9,45.5,29.99,North,359,2.0,2.0,53,0.00,,---,0.00,25.00,VWS V14.00,2013-05-06 01:09:00,
2013-05-05 20:14:00,62.7,45.8,29.99,North,6,0.0,0.0,54,0.00,,---,0.00,25.00,VWS V14.00,2013-05-06 01:14:00,
2013-05-05 20:19:00,62.6,45.7,29.99,North,4,0.0,0.0,54,0.00,,---,0.00,25.00,VWS V14.00,2013-05-06 01:19:00,
2013-05-05 20:24:00,62.4,45.5,29.99,North,1,2.0,2.0,54,0.00,,---,0.00,25.00,VWS V14.00,2013-05-06 01:24:00,
2013-05-05 20:29:00,62.3,46.0,29.99,North,1,1.0,1.0,55,0.00,,---,0.00,25.00,VWS V14.00,2013-05-06 01:29:00,
2013-05-05 20:34:00,62.3,46.0,29.99,North,1,0.0,0.0,55,0.00,,---,0.00,25.00,VWS V14.00,2013-05-06 01:34:00,
2013-05-05 20:39:00,61.8,45.5,29.99,North,1,0.0,0.0,55,0.00,,---,0.00,25.00,VWS V14.00,2013-05-06 01:39:00,
2013-05-05 20:44:00,61.6,45.3,29.99,North,1,0.0,0.0,55,0.00,,---,0.00,0.00,VWS V14.00,2013-05-06 01:44:00,
2013-05-05 20:49:00,61.3,45.5,29.99,North,1,0.0,0.0,56,0.00,,---,0.00,0.00,VWS V14.00,2013-05-06 01:49:00,
2013-05-05 20:54:00,61.0,45.7,29.99,North,1,0.0,0.0,57,0.00,,---,0.00,0.00,VWS V14.00,2013-05-06 01:54:00,
2013-05-05 20:59:00,60.7,45.8,29.99,North,1,0.0,0.0,58,0.00,,---,0.00,0.00,VWS V14.00,2013-05-06 01:59:00,
2013-05-05 21:04:00,60.7,45.8,29.99,North,1,0.0,0.0,58,0.00,,---,0.00,0.00,VWS V14.00,2013-05-06 02:04:00,
2013-05-05 21:09:00,59.8,45.5,29.99,North,1,0.0,0.0,59,0.00,,---,0.00,0.00,VWS V14.00,2013-05-06 02:09:00,
2013-05-05 21:14:00,59.3,45.0,29.99,North,1,0.0,0.0,59,0.00,,---,0.00,0.00,VWS V14.00,2013-05-06 02:14:00,
2013-05-05 21:19:00,59.2,44.9,29.99,North,1,0.0,0.0,59,0.00,,---,0.00,0.00,VWS V14.00,2013-05-06 02:19:00,
2013-05-05 21:24:00,58.9,44.6,29.99,North,1,0.0,0.0,59,0.00,,---,0.00,0.00,VWS V14.00,2013-05-06 02:24:00,
2013-05-05 21:29:00,58.6,45.2,29.99,North,1,0.0,0.0,61,0.00,,---,0.00,0.00,VWS V14.00,2013-05-06 02:29:00,
2013-05-05 21:34:00,58.3,44.9,30.00,North,1,0.0,0.0,61,0.00,,---,0.00,0.00,VWS V14.00,2013-05-06 02:34:00,
2013-05-05 21:39:00,57.8,44.5,30.00,North,1,0.0,0.0,61,0.00,,---,0.00,0.00,VWS V14.00,2013-05-06 02:39:00,
2013-05-05 21:44:00,57.6,45.1,30.00,North,1,0.0,0.0,63,0.00,,---,0.00,0.00,VWS V14.00,2013-05-06 02:44:00,
2013-05-05 21:49:00,57.5,45.0,30.00,North,1,0.0,0.0,63,0.00,,---,0.00,0.00,VWS V14.00,2013-05-06 02:49:00,
2013-05-05 21:54:00,57.3,44.8,30.00,North,1,0.0,0.0,63,0.00,,---,0.00,0.00,VWS V14.00,2013-05-06 02:54:00,
2013-05-05 21:59:00,57.0,45.4,30.00,North,1,0.0,0.0,65,0.00,,---,0.00,0.00,VWS V14.00,2013-05-06 02:59:00,
2013-05-05 22:04:00,56.7,45.1,30.00,North,1,0.0,0.0,65,0.00,,---,0.00,0.00,VWS V14.00,2013-05-06 03:04:00,
2013-05-05 22:09:00,56.6,45.0,30.00,North,1,0.0,0.0,65,0.00,,---,0.00,0.00,VWS V14.00,2013-05-06 03:09:00,
2013-05-05 22:14:00,56.2,45.0,30.00,North,1,0.0,0.0,66,0.00,,---,0.00,0.00,VWS V14.00,2013-05-06 03:14:00,
2013-05-05 22:19:00,56.0,45.2,30.00,North,1,0.0,0.0,67,0.00,,---,0.00,0.00,VWS V14.00,2013-05-06 03:19:00,
2013-05-05 22:24:00,55.9,45.1,30.00,North,1,0.0,0.0,67,0.00,,---,0.00,0.00,VWS V14.00,2013-05-06 03:24:00,
2013-05-05 22:29:00,55.7,44.9,30.00,North,1,1.0,1.0,67,0.00,,---,0.00,0.00,VWS V14.00,2013-05-06 03:29:00,
2013-05-05 22:34:00,55.6,44.8,29.99,North,1,1.0,1.0,67,0.00,,---,0.00,0.00,VWS V14.00,2013-05-06 03:34:00,
2013-05-05 22:39:00,55.6,44.8,29.99,North,11,1.0,2.0,67,0.00,,---,0.00,0.00,VWS V14.00,2013-05-06 03:39:00,
2013-05-05 22:44:00,55.6,44.8,29.99,North,11,1.0,1.0,67,0.00,,---,0.00,0.00,VWS V14.00,2013-05-06 03:44:00,
2013-05-05 22:49:00,55.6,44.8,29.99,North,11,1.0,1.0,67,0.00,,---,0.00,0.00,VWS V14.00,2013-05-06 03:49:00,
2013-05-05 22:54:00,55.1,44.7,29.99,North,11,1.0,1.0,68,0.00,,---,0.00,0.00,VWS V14.00,2013-05-06 03:54:00,
2013-05-05 22:59:00,55.1,44.7,29.99,NE,44,1.0,2.0,68,0.00,,---,0.00,0.00,VWS V14.00,2013-05-06 03:59:00,
2013-05-05 23:01:00,55.1,44.7,29.99,NE,44,1.0,1.0,68,0.00,,---,0.00,0.00,VWS V14.00,2013-05-06 04:01:00,
2013-05-05 23:06:00,55.1,44.7,30.00,ENE,66,0.0,1.0,68,0.00,,---,0.00,0.00,VWS V14.00,2013-05-06 04:06:00,
2013-05-05 23:11:00,55.1,44.7,30.00,ENE,64,0.0,0.0,68,0.00,,---,0.00,0.00,VWS V14.00,2013-05-06 04:11:00,
2013-05-05 23:16:00,55.1,44.7,30.00,NNE,21,2.0,2.0,68,0.00,,---,0.00,0.00,VWS V14.00,2013-05-06 04:16:00,
2013-05-05 23:21:00,55.0,44.3,29.99,NE,41,0.0,1.0,67,0.00,,---,0.00,0.00,VWS V14.00,2013-05-06 04:21:00,
2013-05-05 23:26:00,55.0,44.3,29.99,NE,47,1.0,1.0,67,0.00,,---,0.00,0.00,VWS V14.00,2013-05-06 04:26:00,
2013-05-05 23:31:00,55.0,44.3,29.99,NE,45,2.0,2.0,67,0.00,,---,0.00,0.00,VWS V14.00,2013-05-06 04:31:00,
2013-05-05 23:36:00,54.8,44.1,30.00,NE,42,3.0,3.0,67,0.00,,---,0.00,0.00,VWS V14.00,2013-05-06 04:36:00,
2013-05-05 23:41:00,54.7,44.0,30.00,NE,45,0.0,1.0,67,0.00,,---,0.00,0.00,VWS V14.00,2013-05-06 04:41:00,
2013-05-05 23:46:00,54.5,43.8,30.00,NE,42,1.0,1.0,67,0.00,,---,0.00,0.00,VWS V14.00,2013-05-06 04:46:00,
2013-05-05 23:51:00,54.4,43.7,29.99,NE,41,3.0,3.0,67,0.00,,---,0.00,0.00,VWS V14.00,2013-05-06 04:51:00,
2013-05-05 23:56:00,54.2,43.9,29.99,NE,41,2.0,2.0,68,0.00,,---,0.00,0.00,VWS V14.00,2013-05-06 04:56:00,